Akron, Alabama
Current Conditions -  °F | °C
As of 10:53 PM on Saturday 22 Nov 2014 (Local Time) from KTCL Reporting Station
Overcast Overcast  
Wind Chill: 61°   Ceiling: 2200
Heat Index: 61°   Visibility: 10mi
Dew Point: 52°   Wind: 6mph
Humidity: 72%   Direction: 110°ESE
Pressure: 30.06"   Gusts: NA
Location:  32.88°N, 87.74°W
Report Text: KTCL 230453Z AUTO 11005KT 10SM OVC022 16/11 A3006 RMK AO2 SLP176 T01610111
Loading
Personal Weather Stations






























Interactive Weather Map New forecast layout! Learn more

10-Day Weather Forecast

Advertisements
Track Severe Weather on mobile